EDW69A LGRP-LSZH
Flight info
| Callsign | EDW69A |
|---|---|
| Flight time | 2h 54m |
| Altitude | 36000 |
| Route | VANES UM601 ADESO UN133 RIGRO DCT GIKAS/N0444F380 DCT EVIVI DCT OKANA DCT SOMUN DCT PODET DCT ERKIR DCT KPT L856 NEGRA |
| Aircraft | A320/M-SDE2E3FGHIJ1LORVWXY/LB1 |
Departure
| Time | 2026-05-07 16:09 |
|---|---|
| Airport | Rhodes International Airport "Diagoras" (LGRP) |
Arrival
| Time | 2026-05-07 19:04 |
|---|---|
| Airport | Zürich Airport (LSZH) |
| Time | Latitude | Longitude | Altitude | Speed | Heading |
|---|---|---|---|---|---|
| 2026-05-07 15:35 | 36.40367 | 28.09137 | 28 ft | 0 kts | 160° |
| 2026-05-07 15:59 | 36.40379 | 28.09131 | 28 ft | 4 kts | 160° |
| 2026-05-07 15:59 | 36.40401 | 28.09121 | 28 ft | 3 kts | 159° |
| 2026-05-07 15:59 | 36.40416 | 28.09113 | 28 ft | 4 kts | 130° |
| 2026-05-07 16:00 | 36.40422 | 28.09086 | 28 ft | 4 kts | 76° |
| 2026-05-07 16:00 | 36.40420 | 28.09075 | 28 ft | 4 kts | 71° |
| 2026-05-07 16:00 | 36.40428 | 28.09099 | 28 ft | 0 kts | 70° |
| 2026-05-07 16:03 | 36.40435 | 28.09123 | 28 ft | 5 kts | 70° |
| 2026-05-07 16:03 | 36.40446 | 28.09163 | 28 ft | 4 kts | 70° |
| 2026-05-07 16:03 | 36.40456 | 28.09194 | 28 ft | 3 kts | 70° |
| 2026-05-07 16:04 | 36.40466 | 28.09227 | 28 ft | 5 kts | 69° |
| 2026-05-07 16:04 | 36.40479 | 28.09272 | 28 ft | 6 kts | 71° |
| 2026-05-07 16:04 | 36.40499 | 28.09332 | 28 ft | 9 kts | 57° |
| 2026-05-07 16:04 | 36.40557 | 28.09388 | 28 ft | 12 kts | 32° |
| 2026-05-07 16:05 | 36.40603 | 28.09468 | 28 ft | 11 kts | 68° |
| 2026-05-07 16:05 | 36.40629 | 28.09555 | 28 ft | 10 kts | 70° |
| 2026-05-07 16:05 | 36.40655 | 28.09643 | 28 ft | 12 kts | 70° |
| 2026-05-07 16:05 | 36.40687 | 28.09752 | 28 ft | 15 kts | 70° |
| 2026-05-07 16:06 | 36.40728 | 28.09893 | 28 ft | 20 kts | 70° |
| 2026-05-07 16:06 | 36.40777 | 28.10058 | 28 ft | 20 kts | 69° |
| 2026-05-07 16:06 | 36.40822 | 28.10214 | 28 ft | 18 kts | 69° |
| 2026-05-07 16:06 | 36.40865 | 28.10355 | 28 ft | 17 kts | 70° |
| 2026-05-07 16:07 | 36.40933 | 28.10432 | 28 ft | 14 kts | 346° |
| 2026-05-07 16:07 | 36.40997 | 28.10348 | 27 ft | 15 kts | 297° |
| 2026-05-07 16:07 | 36.41010 | 28.10221 | 27 ft | 15 kts | 248° |
| 2026-05-07 16:07 | 36.41000 | 28.10194 | 27 ft | 0 kts | 247° |
| 2026-05-07 16:08 | 36.41000 | 28.10192 | 27 ft | 2 kts | 247° |
| 2026-05-07 16:08 | 36.40929 | 28.09957 | 27 ft | 66 kts | 250° |
| 2026-05-07 16:08 | 36.40696 | 28.09161 | 31 ft | 127 kts | 250° |
| 2026-05-07 16:09 | 36.40335 | 28.07937 | 111 ft | 168 kts | 249° |
| 2026-05-07 16:09 | 36.39933 | 28.06550 | 686 ft | 174 kts | 253° |
| 2026-05-07 16:09 | 36.39735 | 28.05052 | 1396 ft | 178 kts | 265° |
| 2026-05-07 16:09 | 36.39639 | 28.03558 | 1836 ft | 168 kts | 266° |
| 2026-05-07 16:10 | 36.39550 | 28.02044 | 2175 ft | 187 kts | 266° |
| 2026-05-07 16:10 | 36.39445 | 28.00336 | 2506 ft | 210 kts | 266° |
| 2026-05-07 16:10 | 36.39320 | 27.98457 | 2941 ft | 229 kts | 265° |
| 2026-05-07 16:10 | 36.39172 | 27.96385 | 3386 ft | 253 kts | 265° |
| 2026-05-07 16:11 | 36.39005 | 27.94152 | 4076 ft | 265 kts | 265° |
| 2026-05-07 16:11 | 36.38826 | 27.91843 | 4918 ft | 273 kts | 266° |
| 2026-05-07 16:11 | 36.38642 | 27.89477 | 5775 ft | 278 kts | 265° |
| 2026-05-07 16:11 | 36.38453 | 27.87063 | 6631 ft | 284 kts | 265° |
| 2026-05-07 16:12 | 36.38379 | 27.84604 | 7477 ft | 286 kts | 273° |
| 2026-05-07 16:12 | 36.38415 | 27.82125 | 8383 ft | 288 kts | 273° |
| 2026-05-07 16:12 | 36.38446 | 27.79623 | 9313 ft | 290 kts | 273° |
| 2026-05-07 16:12 | 36.38475 | 27.77126 | 10250 ft | 290 kts | 273° |
| 2026-05-07 16:13 | 36.38507 | 27.74541 | 10642 ft | 311 kts | 273° |
| 2026-05-07 16:13 | 36.38689 | 27.71778 | 10874 ft | 332 kts | 281° |
| 2026-05-07 16:13 | 36.39054 | 27.68891 | 11404 ft | 343 kts | 281° |
| 2026-05-07 16:13 | 36.39425 | 27.65954 | 12152 ft | 346 kts | 281° |
| 2026-05-07 16:14 | 36.39797 | 27.62994 | 12941 ft | 348 kts | 281° |
| 2026-05-07 16:14 | 36.40172 | 27.60014 | 13723 ft | 350 kts | 281° |
| 2026-05-07 16:14 | 36.40550 | 27.57019 | 14430 ft | 353 kts | 281° |
| 2026-05-07 16:14 | 36.40927 | 27.53998 | 15110 ft | 355 kts | 281° |
| 2026-05-07 16:15 | 36.41306 | 27.50963 | 15780 ft | 357 kts | 281° |
| 2026-05-07 16:15 | 36.41687 | 27.47910 | 16446 ft | 359 kts | 281° |
| 2026-05-07 16:15 | 36.42070 | 27.44832 | 17084 ft | 362 kts | 280° |
| 2026-05-07 16:15 | 36.42454 | 27.41729 | 17747 ft | 365 kts | 280° |
| 2026-05-07 16:16 | 36.42839 | 27.38604 | 18401 ft | 367 kts | 280° |
| 2026-05-07 16:16 | 36.43228 | 27.35456 | 18971 ft | 370 kts | 280° |
| 2026-05-07 16:16 | 36.43619 | 27.32289 | 19513 ft | 372 kts | 280° |
| 2026-05-07 16:16 | 36.44011 | 27.29097 | 20076 ft | 375 kts | 280° |
| 2026-05-07 16:17 | 36.44404 | 27.25883 | 20649 ft | 378 kts | 279° |
| 2026-05-07 16:17 | 36.44797 | 27.22640 | 21189 ft | 381 kts | 279° |
| 2026-05-07 16:17 | 36.45191 | 27.19374 | 21722 ft | 384 kts | 279° |
| 2026-05-07 16:17 | 36.45589 | 27.16081 | 22238 ft | 387 kts | 279° |
| 2026-05-07 16:18 | 36.45992 | 27.12770 | 22753 ft | 389 kts | 279° |
| 2026-05-07 16:18 | 36.46398 | 27.09435 | 23254 ft | 392 kts | 279° |
| 2026-05-07 16:18 | 36.46806 | 27.06075 | 23732 ft | 395 kts | 279° |
| 2026-05-07 16:18 | 36.47218 | 27.02695 | 24137 ft | 397 kts | 279° |
| 2026-05-07 16:19 | 36.47634 | 26.99298 | 24552 ft | 398 kts | 280° |
| 2026-05-07 16:19 | 36.48047 | 26.95892 | 24958 ft | 400 kts | 280° |
| 2026-05-07 16:19 | 36.48462 | 26.92472 | 25358 ft | 401 kts | 280° |
| 2026-05-07 16:19 | 36.48878 | 26.89043 | 25756 ft | 402 kts | 281° |
| 2026-05-07 16:20 | 36.49293 | 26.85597 | 26147 ft | 404 kts | 280° |
| 2026-05-07 16:20 | 36.49703 | 26.82142 | 26531 ft | 405 kts | 280° |
| 2026-05-07 16:20 | 36.50109 | 26.78676 | 26908 ft | 406 kts | 280° |
| 2026-05-07 16:20 | 36.50511 | 26.75243 | 27272 ft | 407 kts | 281° |
| 2026-05-07 16:21 | 36.50924 | 26.71755 | 27630 ft | 409 kts | 281° |
| 2026-05-07 16:21 | 36.51339 | 26.68255 | 27986 ft | 410 kts | 281° |
| 2026-05-07 16:21 | 36.51755 | 26.64743 | 28331 ft | 411 kts | 281° |
| 2026-05-07 16:21 | 36.52171 | 26.61222 | 28659 ft | 413 kts | 281° |
| 2026-05-07 16:22 | 36.52729 | 26.57730 | 28975 ft | 411 kts | 289° |
| 2026-05-07 16:22 | 36.53821 | 26.54457 | 29266 ft | 410 kts | 300° |
| 2026-05-07 16:22 | 36.55434 | 26.51541 | 29569 ft | 411 kts | 310° |
| 2026-05-07 16:22 | 36.57514 | 26.49089 | 29859 ft | 414 kts | 321° |
| 2026-05-07 16:23 | 36.59979 | 26.47219 | 30130 ft | 418 kts | 331° |
| 2026-05-07 16:23 | 36.62621 | 26.45683 | 30393 ft | 419 kts | 332° |
| 2026-05-07 16:23 | 36.65256 | 26.44152 | 30696 ft | 417 kts | 332° |
| 2026-05-07 16:23 | 36.67881 | 26.42618 | 31007 ft | 416 kts | 331° |
| 2026-05-07 16:24 | 36.70494 | 26.41085 | 31309 ft | 415 kts | 331° |
| 2026-05-07 16:24 | 36.73103 | 26.39551 | 31612 ft | 414 kts | 331° |
| 2026-05-07 16:24 | 36.75701 | 26.38025 | 31960 ft | 411 kts | 330° |
| 2026-05-07 16:24 | 36.78280 | 26.36511 | 32337 ft | 408 kts | 330° |
| 2026-05-07 16:25 | 36.80842 | 26.35005 | 32672 ft | 407 kts | 330° |
| 2026-05-07 16:25 | 36.83398 | 26.33500 | 32978 ft | 405 kts | 330° |
| 2026-05-07 16:25 | 36.85946 | 26.31999 | 33283 ft | 404 kts | 330° |
| 2026-05-07 16:25 | 36.88486 | 26.30497 | 33585 ft | 404 kts | 330° |
| 2026-05-07 16:26 | 36.91022 | 26.28999 | 33890 ft | 403 kts | 330° |
| 2026-05-07 16:26 | 36.93552 | 26.27504 | 34187 ft | 402 kts | 330° |
| 2026-05-07 16:26 | 36.96076 | 26.26012 | 34461 ft | 400 kts | 330° |
| 2026-05-07 16:26 | 36.97735 | 26.25030 | 34700 ft | 397 kts | 330° |
| 2026-05-07 16:27 | 37.01028 | 26.23068 | 35313 ft | 388 kts | 329° |
| 2026-05-07 16:27 | 37.03440 | 26.21606 | 35673 ft | 383 kts | 329° |
| 2026-05-07 16:27 | 37.05829 | 26.20141 | 35956 ft | 381 kts | 328° |
| 2026-05-07 16:27 | 37.08203 | 26.18674 | 36110 ft | 380 kts | 328° |
| 2026-05-07 16:28 | 37.10577 | 26.17212 | 36144 ft | 380 kts | 328° |
| 2026-05-07 16:28 | 37.15324 | 26.14305 | 36144 ft | 379 kts | 328° |
| 2026-05-07 16:29 | 37.20069 | 26.11403 | 36144 ft | 379 kts | 328° |
| 2026-05-07 16:29 | 37.24813 | 26.08494 | 36144 ft | 379 kts | 328° |
| 2026-05-07 16:30 | 37.29577 | 26.05568 | 36141 ft | 382 kts | 328° |
| 2026-05-07 16:30 | 37.34324 | 26.02645 | 36141 ft | 383 kts | 328° |
| 2026-05-07 16:31 | 37.39103 | 25.99704 | 36139 ft | 382 kts | 328° |
| 2026-05-07 16:31 | 37.43881 | 25.96762 | 36136 ft | 382 kts | 328° |
| 2026-05-07 16:32 | 37.48689 | 25.93797 | 36132 ft | 382 kts | 328° |
| 2026-05-07 16:32 | 37.53426 | 25.90864 | 36149 ft | 382 kts | 328° |
| 2026-05-07 16:33 | 37.58202 | 25.87906 | 36138 ft | 383 kts | 328° |
| 2026-05-07 16:33 | 37.62992 | 25.84958 | 36136 ft | 383 kts | 328° |
| 2026-05-07 16:34 | 37.67786 | 25.82016 | 36134 ft | 383 kts | 328° |
| 2026-05-07 16:34 | 37.72583 | 25.79066 | 36134 ft | 383 kts | 328° |
| 2026-05-07 16:35 | 37.77380 | 25.76116 | 36130 ft | 383 kts | 328° |
| 2026-05-07 16:35 | 37.82173 | 25.73155 | 36130 ft | 383 kts | 328° |
| 2026-05-07 16:36 | 37.86961 | 25.70185 | 36130 ft | 383 kts | 328° |
| 2026-05-07 16:36 | 37.91751 | 25.67212 | 36131 ft | 383 kts | 328° |
| 2026-05-07 16:37 | 37.96543 | 25.64235 | 36129 ft | 384 kts | 328° |
| 2026-05-07 16:37 | 38.01332 | 25.61259 | 36147 ft | 384 kts | 328° |
| 2026-05-07 16:38 | 38.06146 | 25.58273 | 36121 ft | 386 kts | 328° |
| 2026-05-07 16:38 | 38.10977 | 25.55270 | 36116 ft | 387 kts | 328° |
| 2026-05-07 16:39 | 38.15816 | 25.52249 | 36116 ft | 388 kts | 328° |
| 2026-05-07 16:39 | 38.20660 | 25.49222 | 36114 ft | 388 kts | 328° |
| 2026-05-07 16:40 | 38.25503 | 25.46189 | 36116 ft | 388 kts | 328° |
| 2026-05-07 16:40 | 38.30366 | 25.43138 | 36108 ft | 391 kts | 328° |
| 2026-05-07 16:41 | 38.35253 | 25.40067 | 36103 ft | 393 kts | 328° |
| 2026-05-07 16:41 | 38.40160 | 25.36986 | 36106 ft | 394 kts | 328° |
| 2026-05-07 16:42 | 38.45083 | 25.33897 | 36111 ft | 395 kts | 328° |
| 2026-05-07 16:42 | 38.49999 | 25.30788 | 36124 ft | 394 kts | 328° |
| 2026-05-07 16:43 | 38.54928 | 25.27672 | 36116 ft | 396 kts | 328° |
| 2026-05-07 16:43 | 38.59882 | 25.24545 | 36109 ft | 398 kts | 328° |
| 2026-05-07 16:44 | 38.64004 | 25.21939 | 36113 ft | 398 kts | 328° |
| 2026-05-07 16:44 | 38.68969 | 25.18785 | 36115 ft | 399 kts | 328° |
| 2026-05-07 16:45 | 38.73942 | 25.15630 | 36114 ft | 399 kts | 328° |
| 2026-05-07 16:45 | 38.78924 | 25.12456 | 36106 ft | 402 kts | 329° |
| 2026-05-07 16:46 | 38.83946 | 25.09248 | 36095 ft | 405 kts | 329° |
| 2026-05-07 16:46 | 38.89000 | 25.06022 | 36095 ft | 407 kts | 329° |
| 2026-05-07 16:47 | 38.94077 | 25.02778 | 36098 ft | 408 kts | 329° |
| 2026-05-07 16:47 | 38.99157 | 24.99525 | 36112 ft | 407 kts | 328° |
| 2026-05-07 16:48 | 39.04238 | 24.96266 | 36112 ft | 409 kts | 329° |
| 2026-05-07 16:48 | 39.09345 | 24.92984 | 36095 ft | 411 kts | 329° |
| 2026-05-07 16:49 | 39.14472 | 24.89687 | 36106 ft | 412 kts | 329° |
| 2026-05-07 16:49 | 39.19610 | 24.86382 | 36106 ft | 413 kts | 329° |
| 2026-05-07 16:50 | 39.24751 | 24.83059 | 36118 ft | 414 kts | 329° |
| 2026-05-07 16:50 | 39.29908 | 24.79716 | 36101 ft | 416 kts | 329° |
| 2026-05-07 16:51 | 39.35092 | 24.76360 | 36094 ft | 417 kts | 329° |
| 2026-05-07 16:51 | 39.40251 | 24.73012 | 36101 ft | 418 kts | 329° |
| 2026-05-07 16:52 | 39.45451 | 24.69634 | 36107 ft | 419 kts | 329° |
| 2026-05-07 16:52 | 39.50666 | 24.66251 | 36112 ft | 420 kts | 329° |
| 2026-05-07 16:53 | 39.55950 | 24.62935 | 36093 ft | 423 kts | 330° |
| 2026-05-07 16:53 | 39.61290 | 24.59671 | 36092 ft | 425 kts | 331° |
| 2026-05-07 16:54 | 39.66645 | 24.56389 | 36091 ft | 426 kts | 330° |
| 2026-05-07 16:54 | 39.71999 | 24.53069 | 36102 ft | 427 kts | 330° |
| 2026-05-07 16:55 | 39.77360 | 24.49729 | 36104 ft | 428 kts | 330° |
| 2026-05-07 16:55 | 39.82741 | 24.46373 | 36102 ft | 429 kts | 330° |
| 2026-05-07 16:56 | 39.88128 | 24.43007 | 36103 ft | 430 kts | 330° |
| 2026-05-07 16:56 | 39.96220 | 24.37947 | 36118 ft | 430 kts | 330° |
| 2026-05-07 16:57 | 40.01629 | 24.34561 | 36108 ft | 432 kts | 330° |
| 2026-05-07 16:57 | 40.07048 | 24.31163 | 36102 ft | 433 kts | 330° |
| 2026-05-07 16:58 | 40.12476 | 24.27746 | 36101 ft | 433 kts | 330° |
| 2026-05-07 16:58 | 40.17907 | 24.24326 | 36102 ft | 434 kts | 330° |
| 2026-05-07 16:59 | 40.23345 | 24.20899 | 36109 ft | 434 kts | 330° |
| 2026-05-07 16:59 | 40.28780 | 24.17456 | 36110 ft | 434 kts | 330° |
| 2026-05-07 17:00 | 40.34209 | 24.14007 | 36116 ft | 434 kts | 330° |
| 2026-05-07 17:00 | 40.39642 | 24.10563 | 36119 ft | 434 kts | 330° |
| 2026-05-07 17:01 | 40.45069 | 24.07118 | 36106 ft | 429 kts | 329° |
| 2026-05-07 17:01 | 40.47717 | 24.05437 | 36111 ft | 417 kts | 329° |
| 2026-05-07 17:01 | 40.50309 | 24.03790 | 36112 ft | 411 kts | 329° |
| 2026-05-07 17:02 | 40.55435 | 24.00522 | 36109 ft | 408 kts | 329° |
| 2026-05-07 17:02 | 40.60538 | 23.97254 | 36118 ft | 408 kts | 329° |
| 2026-05-07 17:03 | 40.65633 | 23.93982 | 36123 ft | 407 kts | 328° |
| 2026-05-07 17:03 | 40.70746 | 23.90694 | 36119 ft | 411 kts | 329° |
| 2026-05-07 17:04 | 40.75897 | 23.87386 | 36113 ft | 412 kts | 329° |
| 2026-05-07 17:04 | 40.81061 | 23.84076 | 36110 ft | 413 kts | 329° |
| 2026-05-07 17:05 | 40.86226 | 23.80755 | 36117 ft | 413 kts | 329° |
| 2026-05-07 17:05 | 40.91389 | 23.77418 | 36139 ft | 414 kts | 329° |
| 2026-05-07 17:06 | 40.96579 | 23.74062 | 36107 ft | 416 kts | 329° |
| 2026-05-07 17:06 | 41.01771 | 23.70698 | 36137 ft | 415 kts | 328° |
| 2026-05-07 17:07 | 41.06947 | 23.67338 | 36137 ft | 414 kts | 328° |
| 2026-05-07 17:07 | 41.12080 | 23.63998 | 36138 ft | 413 kts | 328° |
| 2026-05-07 17:08 | 41.17248 | 23.60634 | 36131 ft | 415 kts | 328° |
| 2026-05-07 17:08 | 41.22436 | 23.57241 | 36119 ft | 416 kts | 328° |
| 2026-05-07 17:09 | 41.27641 | 23.53835 | 36119 ft | 418 kts | 329° |
| 2026-05-07 17:09 | 41.32861 | 23.50420 | 36119 ft | 418 kts | 329° |
| 2026-05-07 17:10 | 41.38091 | 23.46996 | 36134 ft | 420 kts | 329° |
| 2026-05-07 17:10 | 41.43349 | 23.43544 | 36123 ft | 422 kts | 329° |
| 2026-05-07 17:11 | 41.48633 | 23.40108 | 36130 ft | 423 kts | 329° |
| 2026-05-07 17:11 | 41.53919 | 23.36670 | 36138 ft | 422 kts | 329° |
| 2026-05-07 17:12 | 41.59196 | 23.33220 | 36150 ft | 422 kts | 329° |
| 2026-05-07 17:12 | 41.64477 | 23.29765 | 36149 ft | 423 kts | 329° |
| 2026-05-07 17:13 | 41.69769 | 23.26295 | 36145 ft | 424 kts | 329° |
| 2026-05-07 17:13 | 41.75062 | 23.22816 | 36141 ft | 424 kts | 329° |
| 2026-05-07 17:14 | 41.80361 | 23.19331 | 36141 ft | 424 kts | 329° |
| 2026-05-07 17:14 | 41.85667 | 23.15833 | 36141 ft | 426 kts | 329° |
| 2026-05-07 17:15 | 41.90993 | 23.12303 | 36126 ft | 428 kts | 329° |
| 2026-05-07 17:15 | 41.96331 | 23.08753 | 36142 ft | 427 kts | 328° |
| 2026-05-07 17:16 | 42.01655 | 23.05221 | 36147 ft | 426 kts | 329° |
| 2026-05-07 17:16 | 42.06972 | 23.01701 | 36157 ft | 426 kts | 329° |
| 2026-05-07 17:17 | 42.12292 | 22.98162 | 36133 ft | 427 kts | 329° |
| 2026-05-07 17:17 | 42.17615 | 22.94606 | 36122 ft | 427 kts | 329° |
| 2026-05-07 17:18 | 42.22944 | 22.91047 | 36122 ft | 428 kts | 329° |
| 2026-05-07 17:18 | 42.28276 | 22.87474 | 36132 ft | 428 kts | 329° |
| 2026-05-07 17:19 | 42.33582 | 22.83906 | 36111 ft | 430 kts | 329° |
| 2026-05-07 17:19 | 42.38944 | 22.80305 | 36110 ft | 431 kts | 329° |
| 2026-05-07 17:20 | 42.44309 | 22.76689 | 36112 ft | 430 kts | 329° |
| 2026-05-07 17:20 | 42.49664 | 22.73074 | 36121 ft | 430 kts | 328° |
| 2026-05-07 17:21 | 42.55016 | 22.69466 | 36122 ft | 429 kts | 328° |
| 2026-05-07 17:21 | 42.60357 | 22.65849 | 36124 ft | 429 kts | 328° |
| 2026-05-07 17:22 | 42.65690 | 22.62227 | 36127 ft | 428 kts | 328° |
| 2026-05-07 17:22 | 42.71020 | 22.58601 | 36131 ft | 428 kts | 328° |
| 2026-05-07 17:23 | 42.76348 | 22.54962 | 36121 ft | 429 kts | 328° |
| 2026-05-07 17:23 | 42.81665 | 22.51291 | 36123 ft | 427 kts | 324° |
| 2026-05-07 17:24 | 42.86206 | 22.46295 | 36114 ft | 416 kts | 307° |
| 2026-05-07 17:24 | 42.89691 | 22.40043 | 36102 ft | 414 kts | 303° |
| 2026-05-07 17:25 | 42.93131 | 22.33738 | 36099 ft | 414 kts | 303° |
| 2026-05-07 17:25 | 42.96570 | 22.27426 | 36088 ft | 414 kts | 303° |
| 2026-05-07 17:26 | 43.00007 | 22.21098 | 36097 ft | 415 kts | 303° |
| 2026-05-07 17:26 | 43.03443 | 22.14749 | 36084 ft | 416 kts | 303° |
| 2026-05-07 17:27 | 43.06875 | 22.08382 | 36069 ft | 416 kts | 303° |
| 2026-05-07 17:27 | 43.10310 | 22.02012 | 36065 ft | 416 kts | 303° |
| 2026-05-07 17:28 | 43.13742 | 21.95627 | 36066 ft | 416 kts | 303° |
| 2026-05-07 17:28 | 43.17170 | 21.89236 | 36063 ft | 416 kts | 303° |
| 2026-05-07 17:29 | 43.20021 | 21.83918 | 36061 ft | 416 kts | 303° |
| 2026-05-07 17:29 | 43.23443 | 21.77514 | 36060 ft | 416 kts | 303° |
| 2026-05-07 17:30 | 43.26859 | 21.71097 | 36059 ft | 416 kts | 303° |
| 2026-05-07 17:30 | 43.30271 | 21.64671 | 36065 ft | 417 kts | 302° |
| 2026-05-07 17:31 | 43.33686 | 21.58226 | 36056 ft | 418 kts | 302° |
| 2026-05-07 17:31 | 43.37110 | 21.51771 | 36048 ft | 418 kts | 303° |
| 2026-05-07 17:32 | 43.40531 | 21.45310 | 36050 ft | 418 kts | 302° |
| 2026-05-07 17:32 | 43.43951 | 21.38831 | 36043 ft | 419 kts | 303° |
| 2026-05-07 17:33 | 43.47372 | 21.32337 | 36035 ft | 419 kts | 303° |
| 2026-05-07 17:33 | 43.50789 | 21.25828 | 36036 ft | 419 kts | 302° |
| 2026-05-07 17:34 | 43.54203 | 21.19307 | 36038 ft | 419 kts | 302° |
| 2026-05-07 17:34 | 43.57593 | 21.12832 | 36042 ft | 419 kts | 302° |
| 2026-05-07 17:35 | 43.61017 | 21.06260 | 36049 ft | 419 kts | 302° |
| 2026-05-07 17:35 | 43.64423 | 20.99710 | 36043 ft | 420 kts | 302° |
| 2026-05-07 17:36 | 43.67805 | 20.93194 | 36036 ft | 421 kts | 302° |
| 2026-05-07 17:36 | 43.71207 | 20.86620 | 36056 ft | 420 kts | 302° |
| 2026-05-07 17:37 | 43.74606 | 20.80050 | 36053 ft | 420 kts | 302° |
| 2026-05-07 17:37 | 43.77997 | 20.73478 | 36048 ft | 419 kts | 302° |
| 2026-05-07 17:38 | 43.81378 | 20.66900 | 36045 ft | 419 kts | 302° |
| 2026-05-07 17:38 | 43.84761 | 20.60322 | 36075 ft | 419 kts | 302° |
| 2026-05-07 17:39 | 43.88133 | 20.53743 | 36072 ft | 419 kts | 302° |
| 2026-05-07 17:39 | 43.91501 | 20.47155 | 36073 ft | 419 kts | 302° |
| 2026-05-07 17:40 | 43.94863 | 20.40549 | 36057 ft | 419 kts | 302° |
| 2026-05-07 17:40 | 43.98223 | 20.33922 | 36051 ft | 421 kts | 302° |
| 2026-05-07 17:41 | 44.01595 | 20.27287 | 36060 ft | 420 kts | 301° |
| 2026-05-07 17:41 | 44.04969 | 20.20657 | 36035 ft | 420 kts | 301° |
| 2026-05-07 17:42 | 44.08327 | 20.14012 | 36039 ft | 420 kts | 301° |
| 2026-05-07 17:42 | 44.11677 | 20.07354 | 36042 ft | 420 kts | 301° |
| 2026-05-07 17:43 | 44.15000 | 20.00739 | 36030 ft | 419 kts | 301° |
| 2026-05-07 17:43 | 44.18347 | 19.94083 | 36027 ft | 420 kts | 301° |
| 2026-05-07 17:44 | 44.21691 | 19.87410 | 36041 ft | 420 kts | 301° |
| 2026-05-07 17:44 | 44.25031 | 19.80715 | 36034 ft | 421 kts | 301° |
| 2026-05-07 17:45 | 44.28374 | 19.74010 | 36038 ft | 421 kts | 300° |
| 2026-05-07 17:45 | 44.31713 | 19.67295 | 36030 ft | 421 kts | 301° |
| 2026-05-07 17:46 | 44.35057 | 19.60574 | 36030 ft | 421 kts | 300° |
| 2026-05-07 17:46 | 44.38392 | 19.53839 | 36030 ft | 421 kts | 300° |
| 2026-05-07 17:47 | 44.41720 | 19.47096 | 36022 ft | 421 kts | 300° |
| 2026-05-07 17:47 | 44.45048 | 19.40333 | 36021 ft | 423 kts | 300° |
| 2026-05-07 17:48 | 44.48381 | 19.33550 | 36022 ft | 423 kts | 300° |
| 2026-05-07 17:48 | 44.51712 | 19.26760 | 36019 ft | 423 kts | 300° |
| 2026-05-07 17:49 | 44.55043 | 19.19953 | 36019 ft | 424 kts | 300° |
| 2026-05-07 17:49 | 44.58349 | 19.13173 | 36021 ft | 424 kts | 300° |
| 2026-05-07 17:50 | 44.61673 | 19.06331 | 36021 ft | 424 kts | 300° |
| 2026-05-07 17:50 | 44.64964 | 18.99457 | 36019 ft | 424 kts | 299° |
| 2026-05-07 17:51 | 44.68250 | 18.92570 | 36018 ft | 424 kts | 299° |
| 2026-05-07 17:51 | 44.71539 | 18.85685 | 36020 ft | 424 kts | 299° |
| 2026-05-07 17:52 | 44.74822 | 18.78791 | 36019 ft | 424 kts | 299° |
| 2026-05-07 17:52 | 44.78103 | 18.71887 | 36019 ft | 424 kts | 299° |
| 2026-05-07 17:53 | 44.81376 | 18.64972 | 36023 ft | 424 kts | 299° |
| 2026-05-07 17:53 | 44.84652 | 18.58054 | 36018 ft | 425 kts | 299° |
| 2026-05-07 17:54 | 44.87922 | 18.51115 | 36021 ft | 425 kts | 299° |
| 2026-05-07 17:54 | 44.91188 | 18.44170 | 36021 ft | 425 kts | 299° |
| 2026-05-07 17:55 | 44.94449 | 18.37223 | 36022 ft | 425 kts | 299° |
| 2026-05-07 17:55 | 44.97707 | 18.30269 | 36022 ft | 424 kts | 298° |
| 2026-05-07 17:56 | 45.00961 | 18.23308 | 36027 ft | 425 kts | 298° |
| 2026-05-07 17:56 | 45.04215 | 18.16335 | 36017 ft | 425 kts | 298° |
| 2026-05-07 17:57 | 45.06921 | 18.10533 | 36018 ft | 425 kts | 298° |
| 2026-05-07 17:57 | 45.10713 | 18.02357 | 36021 ft | 425 kts | 298° |
| 2026-05-07 17:58 | 45.13948 | 17.95353 | 36021 ft | 425 kts | 298° |
| 2026-05-07 17:58 | 45.17176 | 17.88354 | 36019 ft | 424 kts | 298° |
| 2026-05-07 17:59 | 45.20395 | 17.81356 | 36019 ft | 424 kts | 298° |
| 2026-05-07 17:59 | 45.23610 | 17.74359 | 36019 ft | 423 kts | 298° |
| 2026-05-07 18:00 | 45.26820 | 17.67350 | 36021 ft | 423 kts | 298° |
| 2026-05-07 18:00 | 45.30023 | 17.60346 | 36021 ft | 422 kts | 297° |
| 2026-05-07 18:01 | 45.33193 | 17.53399 | 36022 ft | 422 kts | 297° |
| 2026-05-07 18:01 | 45.36377 | 17.46392 | 36021 ft | 422 kts | 297° |
| 2026-05-07 18:02 | 45.39557 | 17.39369 | 36307 ft | 422 kts | 297° |
| 2026-05-07 18:02 | 45.41147 | 17.35857 | 36547 ft | 422 kts | 297° |
| 2026-05-07 18:02 | 45.42734 | 17.32348 | 36767 ft | 422 kts | 297° |
| 2026-05-07 18:03 | 45.44325 | 17.28831 | 36979 ft | 423 kts | 297° |
| 2026-05-07 18:03 | 45.45915 | 17.25310 | 37168 ft | 423 kts | 297° |
| 2026-05-07 18:03 | 45.47505 | 17.21786 | 37358 ft | 423 kts | 297° |
| 2026-05-07 18:03 | 45.49095 | 17.18257 | 37551 ft | 423 kts | 297° |
| 2026-05-07 18:04 | 45.50683 | 17.14726 | 37744 ft | 423 kts | 297° |
| 2026-05-07 18:04 | 45.52268 | 17.11190 | 37943 ft | 423 kts | 297° |
| 2026-05-07 18:04 | 45.53854 | 17.07647 | 38015 ft | 424 kts | 297° |
| 2026-05-07 18:05 | 45.57025 | 17.00555 | 38015 ft | 424 kts | 297° |
| 2026-05-07 18:05 | 45.60181 | 16.93500 | 38014 ft | 423 kts | 297° |
| 2026-05-07 18:06 | 45.63341 | 16.86406 | 38013 ft | 423 kts | 297° |
| 2026-05-07 18:06 | 45.66493 | 16.79300 | 38013 ft | 423 kts | 297° |
| 2026-05-07 18:07 | 45.69644 | 16.72190 | 38016 ft | 423 kts | 297° |
| 2026-05-07 18:07 | 45.72795 | 16.65068 | 38029 ft | 424 kts | 297° |
| 2026-05-07 18:08 | 45.75943 | 16.57918 | 38037 ft | 424 kts | 296° |
| 2026-05-07 18:08 | 45.79080 | 16.50758 | 38025 ft | 425 kts | 296° |
| 2026-05-07 18:09 | 45.82228 | 16.43588 | 38021 ft | 425 kts | 297° |
| 2026-05-07 18:09 | 45.85351 | 16.36457 | 38019 ft | 425 kts | 296° |
| 2026-05-07 18:10 | 45.88482 | 16.29264 | 38030 ft | 425 kts | 296° |
| 2026-05-07 18:10 | 45.91611 | 16.22061 | 38024 ft | 425 kts | 296° |
| 2026-05-07 18:11 | 45.94743 | 16.14861 | 38017 ft | 425 kts | 296° |
| 2026-05-07 18:11 | 45.97869 | 16.07649 | 38017 ft | 425 kts | 296° |
| 2026-05-07 18:12 | 46.00989 | 16.00430 | 38032 ft | 425 kts | 296° |
| 2026-05-07 18:12 | 46.04102 | 15.93201 | 38017 ft | 425 kts | 296° |
| 2026-05-07 18:13 | 46.07202 | 15.85955 | 38033 ft | 425 kts | 296° |
| 2026-05-07 18:13 | 46.10308 | 15.78706 | 38019 ft | 425 kts | 296° |
| 2026-05-07 18:14 | 46.13420 | 15.71444 | 37997 ft | 426 kts | 296° |
| 2026-05-07 18:14 | 46.16524 | 15.64175 | 37992 ft | 426 kts | 296° |
| 2026-05-07 18:15 | 46.19541 | 15.56897 | 37994 ft | 425 kts | 295° |
| 2026-05-07 18:15 | 46.22506 | 15.49456 | 37989 ft | 425 kts | 294° |
| 2026-05-07 18:16 | 46.25424 | 15.42099 | 37987 ft | 425 kts | 295° |
| 2026-05-07 18:16 | 46.28380 | 15.34705 | 38007 ft | 425 kts | 295° |
| 2026-05-07 18:17 | 46.31333 | 15.27306 | 38001 ft | 425 kts | 295° |
| 2026-05-07 18:17 | 46.34279 | 15.19902 | 37999 ft | 424 kts | 295° |
| 2026-05-07 18:18 | 46.37214 | 15.12490 | 37996 ft | 424 kts | 295° |
| 2026-05-07 18:18 | 46.39674 | 15.06281 | 38006 ft | 424 kts | 295° |
| 2026-05-07 18:19 | 46.42589 | 14.98897 | 38017 ft | 425 kts | 295° |
| 2026-05-07 18:19 | 46.45517 | 14.91442 | 38007 ft | 426 kts | 295° |
| 2026-05-07 18:20 | 46.48451 | 14.83968 | 38005 ft | 426 kts | 295° |
| 2026-05-07 18:20 | 46.51385 | 14.76490 | 38000 ft | 426 kts | 295° |
| 2026-05-07 18:21 | 46.54310 | 14.68996 | 38025 ft | 427 kts | 295° |
| 2026-05-07 18:21 | 46.57231 | 14.61496 | 38037 ft | 427 kts | 295° |
| 2026-05-07 18:22 | 46.60150 | 14.53982 | 38051 ft | 427 kts | 295° |
| 2026-05-07 18:22 | 46.63060 | 14.46464 | 38049 ft | 427 kts | 295° |
| 2026-05-07 18:23 | 46.65970 | 14.38942 | 38045 ft | 426 kts | 295° |
| 2026-05-07 18:23 | 46.68869 | 14.31412 | 38070 ft | 427 kts | 295° |
| 2026-05-07 18:24 | 46.71766 | 14.23852 | 38048 ft | 428 kts | 295° |
| 2026-05-07 18:24 | 46.74670 | 14.16279 | 38037 ft | 428 kts | 295° |
| 2026-05-07 18:25 | 46.77571 | 14.08689 | 38038 ft | 429 kts | 295° |
| 2026-05-07 18:25 | 46.80439 | 14.01129 | 38033 ft | 429 kts | 295° |
| 2026-05-07 18:26 | 46.83321 | 13.93510 | 38060 ft | 429 kts | 295° |
| 2026-05-07 18:26 | 46.86207 | 13.85903 | 38049 ft | 428 kts | 295° |
| 2026-05-07 18:27 | 46.89086 | 13.78292 | 38054 ft | 428 kts | 295° |
| 2026-05-07 18:27 | 46.91954 | 13.70652 | 38055 ft | 429 kts | 295° |
| 2026-05-07 18:28 | 46.94814 | 13.62996 | 38066 ft | 429 kts | 295° |
| 2026-05-07 18:28 | 46.97679 | 13.55341 | 38076 ft | 428 kts | 295° |
| 2026-05-07 18:29 | 47.00538 | 13.47699 | 38078 ft | 428 kts | 295° |
| 2026-05-07 18:29 | 47.03389 | 13.40035 | 38079 ft | 428 kts | 295° |
| 2026-05-07 18:30 | 47.06243 | 13.32365 | 38075 ft | 428 kts | 295° |
| 2026-05-07 18:30 | 47.09090 | 13.24700 | 38090 ft | 428 kts | 295° |
| 2026-05-07 18:31 | 47.11929 | 13.17009 | 38080 ft | 429 kts | 295° |
| 2026-05-07 18:31 | 47.14748 | 13.09354 | 38072 ft | 429 kts | 295° |
| 2026-05-07 18:32 | 47.17581 | 13.01643 | 38076 ft | 429 kts | 295° |
| 2026-05-07 18:32 | 47.20409 | 12.93909 | 38076 ft | 429 kts | 295° |
| 2026-05-07 18:33 | 47.23228 | 12.86170 | 38090 ft | 429 kts | 295° |
| 2026-05-07 18:33 | 47.26039 | 12.78423 | 38090 ft | 429 kts | 295° |
| 2026-05-07 18:34 | 47.28852 | 12.70670 | 38083 ft | 429 kts | 295° |
| 2026-05-07 18:34 | 47.31654 | 12.62911 | 38096 ft | 429 kts | 295° |
| 2026-05-07 18:35 | 47.34458 | 12.55143 | 38081 ft | 429 kts | 295° |
| 2026-05-07 18:35 | 47.37262 | 12.47365 | 38093 ft | 430 kts | 295° |
| 2026-05-07 18:36 | 47.40060 | 12.39568 | 38086 ft | 430 kts | 295° |
| 2026-05-07 18:36 | 47.42847 | 12.31760 | 38080 ft | 430 kts | 295° |
| 2026-05-07 18:37 | 47.45627 | 12.23950 | 38076 ft | 430 kts | 295° |
| 2026-05-07 18:37 | 47.48407 | 12.16137 | 38077 ft | 430 kts | 295° |
| 2026-05-07 18:38 | 47.50744 | 12.08083 | 38070 ft | 423 kts | 278° |
| 2026-05-07 18:38 | 47.51250 | 11.99447 | 38063 ft | 422 kts | 276° |
| 2026-05-07 18:39 | 47.52115 | 11.90846 | 38060 ft | 423 kts | 277° |
| 2026-05-07 18:39 | 47.52988 | 11.82239 | 38065 ft | 423 kts | 277° |
| 2026-05-07 18:40 | 47.53865 | 11.73627 | 38078 ft | 424 kts | 277° |
| 2026-05-07 18:40 | 47.54740 | 11.65010 | 38069 ft | 423 kts | 277° |
| 2026-05-07 18:41 | 47.55608 | 11.56450 | 38066 ft | 424 kts | 277° |
| 2026-05-07 18:41 | 47.56462 | 11.47814 | 38061 ft | 424 kts | 276° |
| 2026-05-07 18:42 | 47.57305 | 11.39179 | 38064 ft | 424 kts | 277° |
| 2026-05-07 18:42 | 47.58148 | 11.30542 | 38068 ft | 424 kts | 277° |
| 2026-05-07 18:43 | 47.58990 | 11.21905 | 38067 ft | 424 kts | 277° |
| 2026-05-07 18:43 | 47.59829 | 11.13271 | 38064 ft | 423 kts | 276° |
| 2026-05-07 18:44 | 47.60653 | 11.04644 | 38063 ft | 423 kts | 276° |
| 2026-05-07 18:44 | 47.61460 | 10.96015 | 38064 ft | 423 kts | 276° |
| 2026-05-07 18:45 | 47.62261 | 10.87382 | 38070 ft | 423 kts | 276° |
| 2026-05-07 18:45 | 47.63067 | 10.78746 | 37777 ft | 422 kts | 276° |
| 2026-05-07 18:45 | 47.63468 | 10.74440 | 37512 ft | 421 kts | 276° |
| 2026-05-07 18:46 | 47.63866 | 10.70137 | 37247 ft | 421 kts | 276° |
| 2026-05-07 18:46 | 47.64259 | 10.65840 | 36991 ft | 420 kts | 276° |
| 2026-05-07 18:46 | 47.64650 | 10.61551 | 36647 ft | 420 kts | 276° |
| 2026-05-07 18:46 | 47.65042 | 10.57252 | 35848 ft | 420 kts | 277° |
| 2026-05-07 18:47 | 47.65434 | 10.52954 | 35032 ft | 421 kts | 277° |
| 2026-05-07 18:47 | 47.65823 | 10.48649 | 34234 ft | 421 kts | 277° |
| 2026-05-07 18:47 | 47.66211 | 10.44349 | 33230 ft | 422 kts | 277° |
| 2026-05-07 18:47 | 47.66598 | 10.40020 | 32235 ft | 423 kts | 277° |
| 2026-05-07 18:48 | 47.66981 | 10.35686 | 31239 ft | 425 kts | 277° |
| 2026-05-07 18:48 | 47.67364 | 10.31333 | 30196 ft | 427 kts | 277° |
| 2026-05-07 18:48 | 47.67749 | 10.26956 | 29255 ft | 425 kts | 277° |
| 2026-05-07 18:48 | 47.68123 | 10.22717 | 28607 ft | 417 kts | 277° |
| 2026-05-07 18:49 | 47.68503 | 10.18423 | 27883 ft | 411 kts | 277° |
| 2026-05-07 18:49 | 47.68867 | 10.14295 | 27202 ft | 407 kts | 277° |
| 2026-05-07 18:49 | 47.69227 | 10.10156 | 26526 ft | 403 kts | 277° |
| 2026-05-07 18:49 | 47.69580 | 10.06054 | 25858 ft | 399 kts | 277° |
| 2026-05-07 18:50 | 47.69923 | 10.01986 | 25196 ft | 396 kts | 277° |
| 2026-05-07 18:50 | 47.70267 | 9.97945 | 24541 ft | 393 kts | 277° |
| 2026-05-07 18:50 | 47.70612 | 9.93930 | 23895 ft | 391 kts | 277° |
| 2026-05-07 18:50 | 47.70961 | 9.89938 | 23219 ft | 389 kts | 277° |
| 2026-05-07 18:51 | 47.71307 | 9.85978 | 22614 ft | 385 kts | 277° |
| 2026-05-07 18:51 | 47.71647 | 9.82064 | 22051 ft | 380 kts | 277° |
| 2026-05-07 18:51 | 47.71979 | 9.78187 | 21523 ft | 376 kts | 277° |
| 2026-05-07 18:51 | 47.72305 | 9.74347 | 21006 ft | 373 kts | 276° |
| 2026-05-07 18:52 | 47.72627 | 9.70551 | 20500 ft | 369 kts | 276° |
| 2026-05-07 18:52 | 47.72884 | 9.66767 | 20102 ft | 371 kts | 271° |
| 2026-05-07 18:52 | 47.72813 | 9.62906 | 19933 ft | 376 kts | 267° |
| 2026-05-07 18:52 | 47.72698 | 9.59025 | 19507 ft | 375 kts | 267° |
| 2026-05-07 18:53 | 47.72588 | 9.55164 | 19261 ft | 374 kts | 267° |
| 2026-05-07 18:53 | 47.72479 | 9.51303 | 19009 ft | 373 kts | 267° |
| 2026-05-07 18:53 | 47.72230 | 9.47480 | 18766 ft | 372 kts | 259° |
| 2026-05-07 18:53 | 47.71574 | 9.43778 | 18526 ft | 371 kts | 252° |
| 2026-05-07 18:54 | 47.70675 | 9.40198 | 18180 ft | 369 kts | 243° |
| 2026-05-07 18:54 | 47.69249 | 9.37053 | 17561 ft | 367 kts | 232° |
| 2026-05-07 18:54 | 47.67660 | 9.34145 | 16923 ft | 359 kts | 231° |
| 2026-05-07 18:54 | 47.66090 | 9.31357 | 16299 ft | 345 kts | 231° |
| 2026-05-07 18:55 | 47.64570 | 9.28683 | 15690 ft | 333 kts | 231° |
| 2026-05-07 18:55 | 47.63170 | 9.26022 | 15090 ft | 321 kts | 237° |
| 2026-05-07 18:55 | 47.61964 | 9.23290 | 14515 ft | 312 kts | 238° |
| 2026-05-07 18:55 | 47.60808 | 9.20618 | 13937 ft | 304 kts | 238° |
| 2026-05-07 18:56 | 47.59684 | 9.18004 | 13303 ft | 297 kts | 238° |
| 2026-05-07 18:56 | 47.58585 | 9.15446 | 12664 ft | 291 kts | 238° |
| 2026-05-07 18:56 | 47.57508 | 9.12946 | 12049 ft | 285 kts | 238° |
| 2026-05-07 18:56 | 47.56448 | 9.10487 | 11434 ft | 281 kts | 238° |
| 2026-05-07 18:57 | 47.55403 | 9.08071 | 10836 ft | 276 kts | 238° |
| 2026-05-07 18:57 | 47.54374 | 9.05699 | 10250 ft | 272 kts | 238° |
| 2026-05-07 18:57 | 47.53356 | 9.03362 | 9647 ft | 267 kts | 238° |
| 2026-05-07 18:57 | 47.52360 | 9.01074 | 9038 ft | 262 kts | 237° |
| 2026-05-07 18:58 | 47.51382 | 8.98831 | 8439 ft | 257 kts | 237° |
| 2026-05-07 18:58 | 47.50418 | 8.96625 | 7854 ft | 254 kts | 237° |
| 2026-05-07 18:58 | 47.49458 | 8.94427 | 7471 ft | 253 kts | 237° |
| 2026-05-07 18:58 | 47.48505 | 8.92246 | 7087 ft | 252 kts | 237° |
| 2026-05-07 18:59 | 47.47564 | 8.90096 | 6693 ft | 244 kts | 237° |
| 2026-05-07 18:59 | 47.46661 | 8.88036 | 6288 ft | 234 kts | 237° |
| 2026-05-07 18:59 | 47.45783 | 8.86030 | 5821 ft | 233 kts | 237° |
| 2026-05-07 18:59 | 47.44906 | 8.84027 | 5433 ft | 231 kts | 237° |
| 2026-05-07 19:00 | 47.44140 | 8.81959 | 5050 ft | 229 kts | 254° |
| 2026-05-07 19:00 | 47.44025 | 8.79660 | 4703 ft | 222 kts | 277° |
| 2026-05-07 19:00 | 47.44199 | 8.77441 | 4391 ft | 214 kts | 277° |
| 2026-05-07 19:00 | 47.44358 | 8.75312 | 4087 ft | 202 kts | 277° |
| 2026-05-07 19:01 | 47.44506 | 8.73294 | 3834 ft | 191 kts | 277° |
| 2026-05-07 19:01 | 47.44643 | 8.71398 | 3530 ft | 181 kts | 277° |
| 2026-05-07 19:01 | 47.44773 | 8.69585 | 3243 ft | 172 kts | 277° |
| 2026-05-07 19:01 | 47.44887 | 8.67868 | 2993 ft | 163 kts | 277° |
| 2026-05-07 19:02 | 47.44992 | 8.66271 | 2786 ft | 151 kts | 277° |
| 2026-05-07 19:02 | 47.45096 | 8.64778 | 2650 ft | 144 kts | 277° |
| 2026-05-07 19:02 | 47.45194 | 8.63327 | 2433 ft | 141 kts | 277° |
| 2026-05-07 19:02 | 47.45309 | 8.61891 | 2198 ft | 140 kts | 277° |
| 2026-05-07 19:03 | 47.45413 | 8.60453 | 1976 ft | 140 kts | 278° |
| 2026-05-07 19:03 | 47.45514 | 8.59016 | 1771 ft | 141 kts | 278° |
| 2026-05-07 19:03 | 47.45619 | 8.57600 | 1578 ft | 140 kts | 278° |
| 2026-05-07 19:03 | 47.45717 | 8.56221 | 1418 ft | 126 kts | 278° |
| 2026-05-07 19:04 | 47.45781 | 8.55309 | 1402 ft | 44 kts | 277° |
| 2026-05-07 19:04 | 47.45803 | 8.54991 | 1392 ft | 22 kts | 270° |
| 2026-05-07 19:04 | 47.45740 | 8.54865 | 1397 ft | 13 kts | 178° |
| 2026-05-07 19:04 | 47.45660 | 8.54915 | 1401 ft | 13 kts | 148° |
| 2026-05-07 19:05 | 47.45576 | 8.54974 | 1400 ft | 14 kts | 155° |
| 2026-05-07 19:05 | 47.45486 | 8.55049 | 1403 ft | 15 kts | 142° |
| 2026-05-07 19:05 | 47.45421 | 8.55175 | 1400 ft | 14 kts | 119° |
| 2026-05-07 19:05 | 47.45374 | 8.55302 | 1400 ft | 13 kts | 118° |
| 2026-05-07 19:06 | 47.45345 | 8.55381 | 1402 ft | 13 kts | 119° |
| 2026-05-07 19:06 | 47.45277 | 8.55583 | 1407 ft | 10 kts | 100° |
| 2026-05-07 19:06 | 47.45267 | 8.55698 | 1407 ft | 14 kts | 97° |
| 2026-05-07 19:07 | 47.45254 | 8.55827 | 1410 ft | 7 kts | 96° |
| 2026-05-07 19:07 | 47.45243 | 8.55900 | 1413 ft | 8 kts | 140° |
| 2026-05-07 19:07 | 47.45188 | 8.55902 | 1407 ft | 6 kts | 185° |
| 2026-05-07 19:07 | 47.45161 | 8.55897 | 1407 ft | 1 kts | 186° |
| 2026-05-07 19:08 | 47.45158 | 8.55897 | 1407 ft | 0 kts | 186° |